Flagstaff (FLG/KFLG)

Map

Destinations

Information

Location
Flagstaff, AZ
Local Time
15:25 / 3:25 pm
GMT Time
22:25 / 10:25 pm
Gates
Unassigned
No FAA reported delays
METAR KFLG 272157Z 20017G22KT 10SM BKN043 BKN060 BKN090 10/00 A2988 RMK AO2 PK WND 21031/2111 SLP079 T01000000
TAF KFLG 271740Z 2718/2818 22018G28KT P6SM BKN040 BKN100 TEMPO 2723/2803 5SM SHRA BKN020 OVC040 FM280300 24010G15KT P6SM -SHRA BKN025 OVC040 FM280500 24008KT 6SM -SHSN BKN025 OVC040 FM280900 24008KT P6SM OVC025 FM281300 02012G20KT P6SM SCT040
  • No charts available